createdAt,value
2018-12-12T00:01:12.466Z,88.57
2018-12-12T00:03:42.116Z,88.14
2018-12-12T00:06:11.775Z,86.61
2018-12-12T00:08:41.541Z,87.04
2018-12-12T00:11:11.255Z,88.19
2018-12-12T00:13:41.005Z,89.59
2018-12-12T00:16:10.677Z,88.74
2018-12-12T00:18:40.383Z,88.35
2018-12-12T00:21:10.008Z,87.14
2018-12-12T00:23:39.782Z,87.09
2018-12-12T00:26:09.525Z,87.63
2018-12-12T00:28:39.305Z,87.98
2018-12-12T00:31:09.031Z,87.62
2018-12-12T00:33:38.706Z,87.23
2018-12-12T00:36:08.352Z,86.72
2018-12-12T00:38:37.931Z,86.98
2018-12-12T00:41:07.672Z,87.06
2018-12-12T00:43:37.269Z,87.64
2018-12-12T00:46:06.835Z,88.20
2018-12-12T00:48:36.663Z,87.77
2018-12-12T00:51:06.363Z,87.84
2018-12-12T00:53:36.764Z,86.75
2018-12-12T00:56:06.372Z,88.41
2018-12-12T00:58:36.262Z,88.78
2018-12-12T01:01:05.877Z,89.70
2018-12-12T01:03:35.477Z,89.22
2018-12-12T01:06:05.063Z,89.00
2018-12-12T01:08:34.752Z,88.22
2018-12-12T01:11:09.577Z,88.77
2018-12-12T01:13:39.172Z,89.69
2018-12-12T01:16:08.742Z,89.70
2018-12-12T01:18:38.338Z,90.63
2018-12-12T01:21:07.964Z,90.24
2018-12-12T01:23:37.766Z,90.08
2018-12-12T01:26:07.447Z,89.90
2018-12-12T01:28:37.167Z,88.87
2018-12-12T01:31:06.898Z,89.92
2018-12-12T01:33:36.547Z,89.91
2018-12-12T01:36:06.272Z,89.28
2018-12-12T01:38:35.843Z,90.60
2018-12-12T01:41:05.466Z,92.06
2018-12-12T01:43:35.276Z,91.73
2018-12-12T01:46:05.022Z,90.71
2018-12-12T01:48:34.824Z,90.07
2018-12-12T01:51:04.487Z,89.97
2018-12-12T01:53:34.356Z,89.66
2018-12-12T01:56:03.973Z,89.97
2018-12-12T01:58:33.691Z,90.65
2018-12-12T02:01:03.407Z,91.15
2018-12-12T02:03:32.965Z,90.99
2018-12-12T02:06:02.664Z,90.73
2018-12-12T02:08:36.439Z,91.25
2018-12-12T02:11:06.565Z,91.05
2018-12-12T02:13:38.663Z,92.45
2018-12-12T02:16:09.910Z,92.85
2018-12-12T02:18:41.665Z,92.18
2018-12-12T02:21:11.583Z,91.42
2018-12-12T02:23:41.785Z,91.75
2018-12-12T02:26:11.692Z,91.61
2018-12-12T02:28:42.128Z,91.76
2018-12-12T02:31:12.789Z,91.31
2018-12-12T02:33:42.921Z,90.82
2018-12-12T02:36:12.995Z,91.86
2018-12-12T02:38:43.240Z,91.75
2018-12-12T02:41:14.095Z,91.46
2018-12-12T02:43:44.142Z,90.44
2018-12-12T02:46:14.308Z,89.78
2018-12-12T02:48:44.314Z,90.69
2018-12-12T02:51:14.522Z,89.84
2018-12-12T02:53:44.458Z,89.99
2018-12-12T02:56:15.926Z,90.04
2018-12-12T02:58:47.079Z,89.30
2018-12-12T03:01:16.916Z,89.53
2018-12-12T03:03:46.952Z,90.39
2018-12-12T03:06:17.238Z,90.59
2018-12-12T03:08:47.147Z,89.80
2018-12-12T03:11:21.466Z,89.22
2018-12-12T03:13:52.247Z,86.96
2018-12-12T03:16:22.345Z,88.37
2018-12-12T03:18:52.287Z,89.20
2018-12-12T03:21:22.127Z,89.12
2018-12-12T03:23:51.867Z,86.98
2018-12-12T03:26:21.515Z,87.50
2018-12-12T03:28:51.363Z,87.80
2018-12-12T03:31:22.053Z,88.88
2018-12-12T03:33:52.931Z,89.97
2018-12-12T03:36:22.572Z,88.75
2018-12-12T03:38:52.159Z,89.17
2018-12-12T03:41:22.611Z,88.79
2018-12-12T03:43:52.335Z,87.47
2018-12-12T03:46:21.941Z,87.17
2018-12-12T03:48:51.996Z,87.88
2018-12-12T03:51:21.590Z,88.35
2018-12-12T03:53:51.169Z,88.73
2018-12-12T03:56:20.929Z,87.72
2018-12-12T03:58:50.599Z,87.27
2018-12-12T04:01:20.300Z,87.97
2018-12-12T04:03:49.957Z,88.53
2018-12-12T04:06:19.564Z,88.78
2018-12-12T04:08:49.204Z,87.09
2018-12-12T04:11:18.820Z,88.39
2018-12-12T04:13:48.755Z,89.55
2018-12-12T04:16:18.674Z,89.99
2018-12-12T04:18:48.968Z,89.32
2018-12-12T04:21:18.947Z,88.83
2018-12-12T04:26:30.167Z,88.43
2018-12-12T04:29:00.142Z,88.96
2018-12-12T04:31:33.732Z,88.79
2018-12-12T04:34:03.487Z,89.49
2018-12-12T04:36:33.147Z,88.67
2018-12-12T04:39:02.990Z,89.53
2018-12-12T04:41:32.622Z,88.41
2018-12-12T04:44:02.272Z,87.19
2018-12-12T04:46:34.552Z,87.14
2018-12-12T04:49:04.211Z,86.79
2018-12-12T04:51:34.077Z,89.72
2018-12-12T04:54:03.755Z,88.75
2018-12-12T04:56:33.387Z,89.88
2018-12-12T04:59:03.330Z,90.19
2018-12-12T05:01:34.155Z,90.67
2018-12-12T05:04:03.971Z,90.30
2018-12-12T05:06:33.872Z,90.44
2018-12-12T05:09:04.523Z,90.10
2018-12-12T05:11:34.419Z,90.67
2018-12-12T05:14:04.470Z,90.69
2018-12-12T05:16:34.184Z,90.93
2018-12-12T05:19:03.873Z,89.67
2018-12-12T05:21:33.713Z,89.38
2018-12-12T05:24:03.325Z,88.55
2018-12-12T05:26:33.064Z,88.12
2018-12-12T05:29:02.654Z,88.01
2018-12-12T05:31:32.263Z,88.12
2018-12-12T05:34:02.312Z,88.80
2018-12-12T05:36:32.062Z,89.08
2018-12-12T05:39:01.796Z,88.17
2018-12-12T05:41:31.462Z,88.47
2018-12-12T05:44:01.065Z,88.32
2018-12-12T05:46:30.698Z,86.84
2018-12-12T05:49:01.113Z,87.16
2018-12-12T05:51:30.717Z,87.45
2018-12-12T05:54:01.071Z,88.46
2018-12-12T05:56:31.261Z,88.40
2018-12-12T05:59:01.849Z,89.06
2018-12-12T06:01:31.666Z,89.07
2018-12-12T06:04:01.383Z,88.96
2018-12-12T06:06:31.151Z,88.22
2018-12-12T06:09:00.812Z,87.30
2018-12-12T06:11:30.578Z,87.59
2018-12-12T06:14:00.250Z,88.49
2018-12-12T06:16:30.711Z,88.54
2018-12-12T06:19:00.807Z,89.35
2018-12-12T06:21:31.115Z,89.20
2018-12-12T06:24:01.211Z,89.75
2018-12-12T06:26:37.146Z,89.67
2018-12-12T06:29:03.977Z,89.40
2018-12-12T06:31:34.107Z,89.96
2018-12-12T06:34:04.335Z,89.68
2018-12-12T06:36:35.151Z,90.08
2018-12-12T06:39:07.960Z,90.42
2018-12-12T06:41:37.875Z,90.88
2018-12-12T06:44:08.079Z,90.67
2018-12-12T06:46:38.331Z,90.27
2018-12-12T06:49:08.513Z,88.38
2018-12-12T06:51:38.835Z,86.01
2018-12-12T06:54:08.768Z,86.27
2018-12-12T06:56:39.771Z,86.90
2018-12-12T06:59:09.620Z,86.36
2018-12-12T07:01:40.093Z,85.78
2018-12-12T07:04:10.035Z,86.76
2018-12-12T07:06:40.215Z,85.69
2018-12-12T07:09:11.402Z,85.01
2018-12-12T07:11:41.618Z,84.46
2018-12-12T07:14:11.550Z,83.64
2018-12-12T07:16:41.745Z,81.39
2018-12-12T07:19:12.098Z,80.65
2018-12-12T07:21:42.150Z,79.23
2018-12-12T07:24:12.181Z,78.06
2018-12-12T07:26:42.592Z,74.62
2018-12-12T07:29:12.944Z,75.17
2018-12-12T07:31:43.172Z,75.75
2018-12-12T07:34:13.227Z,75.82
2018-12-12T07:36:43.233Z,74.54
2018-12-12T07:39:17.948Z,76.49
2018-12-12T07:41:45.568Z,76.57
2018-12-12T07:44:16.183Z,76.00
2018-12-12T07:46:46.526Z,76.38
2018-12-12T07:49:16.677Z,77.09
2018-12-12T07:51:46.751Z,76.63
2018-12-12T07:54:16.733Z,77.55
2018-12-12T07:56:46.563Z,77.18
2018-12-12T07:59:16.780Z,77.61
2018-12-12T08:01:46.820Z,77.24
2018-12-12T08:04:16.985Z,77.05
2018-12-12T08:06:47.347Z,77.30
2018-12-12T08:09:17.332Z,77.16
2018-12-12T08:11:48.225Z,77.37
2018-12-12T08:14:18.926Z,77.07
2018-12-12T08:16:48.980Z,78.13
2018-12-12T08:19:19.341Z,76.75
2018-12-12T08:21:49.361Z,77.00
2018-12-12T08:24:19.544Z,76.99
2018-12-12T08:26:50.489Z,77.20
2018-12-12T08:29:20.445Z,76.49
2018-12-12T08:31:50.779Z,77.03
2018-12-12T08:34:21.254Z,76.35
2018-12-12T08:36:52.339Z,76.39
2018-12-12T08:39:22.445Z,75.79
2018-12-12T08:41:52.747Z,75.06
2018-12-12T08:44:22.715Z,74.41
2018-12-12T08:46:52.755Z,75.08
2018-12-12T08:49:24.159Z,74.87
2018-12-12T08:51:55.084Z,74.16
2018-12-12T08:54:26.169Z,74.80
2018-12-12T08:56:56.511Z,74.45
2018-12-12T08:59:26.963Z,75.85
2018-12-12T09:01:57.647Z,76.04
2018-12-12T09:04:28.188Z,74.85
2018-12-12T09:06:58.076Z,74.89
2018-12-12T09:09:29.257Z,75.60
2018-12-12T09:11:59.521Z,74.85
2018-12-12T09:14:29.351Z,72.85
2018-12-12T09:16:59.492Z,72.56
2018-12-12T09:19:29.292Z,71.31
2018-12-12T09:21:59.340Z,71.70
2018-12-12T09:24:30.403Z,70.48
2018-12-12T09:27:01.146Z,70.00
2018-12-12T09:29:31.243Z,70.79
2018-12-12T09:32:02.271Z,71.95
2018-12-12T09:34:32.427Z,71.66
2018-12-12T09:37:04.258Z,72.48
2018-12-12T09:39:35.711Z,71.92
2018-12-12T09:42:06.316Z,71.28
2018-12-12T09:44:36.652Z,71.77
2018-12-12T09:47:09.374Z,71.75
2018-12-12T09:49:40.160Z,70.40
2018-12-12T09:52:10.242Z,71.81
2018-12-12T09:54:41.100Z,70.74
2018-12-12T09:57:11.085Z,70.64
2018-12-12T09:59:41.679Z,70.76
2018-12-12T10:02:11.866Z,69.80
2018-12-12T10:04:42.323Z,69.95
2018-12-12T10:07:12.814Z,70.17
2018-12-12T10:09:42.682Z,70.10
2018-12-12T10:12:14.142Z,69.00
2018-12-12T10:14:44.829Z,67.10
2018-12-12T10:17:15.080Z,66.89
2018-12-12T10:19:45.107Z,68.41
2018-12-12T10:22:15.583Z,66.82
2018-12-12T10:24:46.439Z,66.98
2018-12-12T10:27:16.761Z,67.71
2018-12-12T10:29:47.871Z,66.62
2018-12-12T10:32:18.502Z,67.10
2018-12-12T10:34:49.383Z,67.15
2018-12-12T10:37:19.733Z,68.14
2018-12-12T10:39:50.414Z,65.97
2018-12-12T10:42:20.687Z,65.25
2018-12-12T10:44:50.760Z,64.73
2018-12-12T10:47:21.911Z,65.50
2018-12-12T10:49:52.106Z,67.10
2018-12-12T10:52:22.077Z,68.11
2018-12-12T10:54:52.691Z,68.71
2018-12-12T10:57:23.168Z,67.97
2018-12-12T10:59:53.031Z,66.64
2018-12-12T11:02:28.411Z,66.50
2018-12-12T11:04:58.261Z,66.57
2018-12-12T11:07:28.475Z,66.88
2018-12-12T11:09:59.247Z,66.89
2018-12-12T11:12:29.369Z,65.39
2018-12-12T11:15:00.489Z,66.49
2018-12-12T11:17:30.984Z,65.23
2018-12-12T11:20:01.054Z,64.90
2018-12-12T11:22:31.819Z,66.28
2018-12-12T11:25:02.283Z,66.53
2018-12-12T11:27:34.200Z,67.57
2018-12-12T11:30:05.050Z,67.17
2018-12-12T11:32:35.239Z,66.22
2018-12-12T11:35:05.890Z,63.49
2018-12-12T11:37:36.506Z,64.20
2018-12-12T11:40:08.294Z,61.19
2018-12-12T11:42:38.562Z,62.00
2018-12-12T11:45:09.282Z,61.56
2018-12-12T11:47:41.703Z,61.65
2018-12-12T11:50:11.751Z,62.88
2018-12-12T11:52:42.380Z,64.19
2018-12-12T11:55:16.786Z,62.82
2018-12-12T11:57:47.335Z,62.97
2018-12-12T12:00:19.231Z,62.91
2018-12-12T12:02:49.356Z,63.57
2018-12-12T12:05:18.998Z,63.01
2018-12-12T12:07:48.711Z,63.46
2018-12-12T12:10:18.195Z,63.53
2018-12-12T12:12:48.174Z,64.10
2018-12-12T12:15:17.943Z,66.05
2018-12-12T12:17:48.004Z,67.82
2018-12-12T12:20:18.019Z,68.85
2018-12-12T12:22:47.916Z,69.41
2018-12-12T12:25:18.109Z,69.64
2018-12-12T12:27:48.271Z,70.24
2018-12-12T12:30:18.868Z,69.84
2018-12-12T12:32:52.210Z,68.63
2018-12-12T12:35:22.778Z,69.23
2018-12-12T12:37:52.978Z,69.43
2018-12-12T12:40:22.831Z,70.58
2018-12-12T12:42:54.136Z,72.23
2018-12-12T12:45:26.620Z,72.06
2018-12-12T12:47:57.136Z,72.30
2018-12-12T12:50:27.840Z,71.93
2018-12-12T12:52:57.651Z,72.10
2018-12-12T12:55:27.775Z,71.82
2018-12-12T12:57:58.539Z,70.89
2018-12-12T13:00:29.598Z,71.72
2018-12-12T13:02:59.926Z,71.21
2018-12-12T13:05:30.757Z,70.98
2018-12-12T13:08:00.621Z,70.66
2018-12-12T13:10:32.185Z,69.71
2018-12-12T13:13:04.932Z,70.76
2018-12-12T13:15:35.780Z,71.90
2018-12-12T13:18:05.680Z,74.30
2018-12-12T13:20:36.873Z,75.81
2018-12-12T13:23:06.921Z,75.41
2018-12-12T13:25:36.952Z,76.38
2018-12-12T13:28:07.567Z,76.43
2018-12-12T13:30:37.838Z,77.28
2018-12-12T13:33:07.801Z,77.38
2018-12-12T13:35:37.630Z,77.22
2018-12-12T13:38:07.672Z,77.41
2018-12-12T13:40:37.504Z,77.33
2018-12-12T13:43:09.380Z,76.87
2018-12-12T13:45:39.097Z,77.52
2018-12-12T13:48:09.275Z,78.33
2018-12-12T13:50:41.209Z,77.08
2018-12-12T13:53:11.243Z,77.78
2018-12-12T13:55:40.863Z,78.43
2018-12-12T13:58:10.559Z,78.55
2018-12-12T14:00:41.990Z,78.28
2018-12-12T14:03:11.824Z,77.71
2018-12-12T14:05:41.572Z,77.78
2018-12-12T14:08:11.114Z,76.71
2018-12-12T14:10:41.200Z,75.63
2018-12-12T14:13:11.051Z,74.80
2018-12-12T14:15:41.693Z,74.38
2018-12-12T14:18:11.355Z,73.06
2018-12-12T14:20:42.462Z,73.46
2018-12-12T14:23:12.123Z,74.05
2018-12-12T14:25:41.712Z,72.98
2018-12-12T14:28:11.423Z,73.69
2018-12-12T14:30:41.244Z,74.12
2018-12-12T14:33:10.828Z,74.01
2018-12-12T14:35:40.446Z,74.72
2018-12-12T14:38:10.069Z,74.80
2018-12-12T14:40:39.665Z,75.34
2018-12-12T14:43:09.300Z,75.46
2018-12-12T14:45:40.312Z,76.37
2018-12-12T14:48:10.124Z,77.17
2018-12-12T14:50:39.584Z,77.54
2018-12-12T14:53:09.457Z,77.92
2018-12-12T14:55:39.378Z,77.86
2018-12-12T14:58:09.322Z,78.23
2018-12-12T15:00:39.702Z,78.78
2018-12-12T15:03:09.652Z,80.15
2018-12-12T15:05:40.135Z,80.65
2018-12-12T15:08:10.086Z,80.65
2018-12-12T15:10:40.217Z,81.10
2018-12-12T15:13:11.033Z,80.88
2018-12-12T15:15:41.275Z,82.13
2018-12-12T15:18:12.164Z,81.45
2018-12-12T15:20:42.718Z,82.57
2018-12-12T15:23:12.609Z,82.33
2018-12-12T15:25:42.564Z,82.13
2018-12-12T15:28:16.625Z,82.32
2018-12-12T15:30:46.372Z,82.74
2018-12-12T15:33:16.299Z,82.66
2018-12-12T15:35:47.504Z,82.41
2018-12-12T15:38:17.491Z,82.97
2018-12-12T15:40:48.547Z,83.91
2018-12-12T15:43:18.824Z,84.18
2018-12-12T15:45:49.662Z,84.13
2018-12-12T15:48:19.724Z,84.10
2018-12-12T15:50:49.620Z,84.61
2018-12-12T15:53:19.507Z,84.38
2018-12-12T15:55:49.582Z,83.84
2018-12-12T15:58:19.229Z,83.58
2018-12-12T16:00:50.060Z,83.56
2018-12-12T16:03:20.087Z,83.82
2018-12-12T16:05:49.708Z,83.37
2018-12-12T16:08:19.407Z,83.72
2018-12-12T16:10:49.130Z,83.66
2018-12-12T16:13:19.023Z,84.12
2018-12-12T16:15:48.940Z,84.85
2018-12-12T16:18:18.650Z,84.32
2018-12-12T16:20:48.384Z,84.03
2018-12-12T16:23:18.167Z,84.05
2018-12-12T16:25:48.400Z,83.95
2018-12-12T16:28:18.044Z,84.69
2018-12-12T16:30:47.832Z,84.63
2018-12-12T16:33:17.405Z,84.53
2018-12-12T16:35:47.066Z,83.71
2018-12-12T16:38:16.684Z,83.23
2018-12-12T16:40:46.454Z,82.95
2018-12-12T16:43:16.935Z,83.47
2018-12-12T16:45:46.538Z,83.07
2018-12-12T16:48:16.173Z,84.11
2018-12-12T16:50:46.023Z,83.92
2018-12-12T16:53:15.786Z,84.87
2018-12-12T16:55:45.445Z,84.50
2018-12-12T16:58:17.058Z,83.63
2018-12-12T17:00:46.645Z,84.31
2018-12-12T17:03:16.336Z,84.74
2018-12-12T17:05:46.117Z,85.50
2018-12-12T17:08:15.645Z,85.59
2018-12-12T17:10:45.305Z,85.40
2018-12-12T17:13:14.890Z,85.72
2018-12-12T17:15:44.753Z,86.57
2018-12-12T17:18:14.381Z,83.84
2018-12-12T17:20:45.479Z,81.57
2018-12-12T17:23:15.217Z,80.58
2018-12-12T17:25:45.089Z,78.52
2018-12-12T17:28:16.917Z,78.09
2018-12-12T17:30:46.586Z,77.48
2018-12-12T17:33:16.297Z,77.46
2018-12-12T17:35:46.127Z,77.65
2018-12-12T17:38:16.472Z,77.66
2018-12-12T17:40:46.277Z,77.94
2018-12-12T17:43:16.073Z,77.59
2018-12-12T17:45:45.807Z,78.07
2018-12-12T17:48:15.551Z,78.98
2018-12-12T17:50:46.106Z,78.26
2018-12-12T17:53:16.082Z,78.54
2018-12-12T17:55:45.815Z,78.91
2018-12-12T17:58:15.585Z,78.99
2018-12-12T18:00:45.466Z,78.59
2018-12-12T18:03:15.352Z,78.78
2018-12-12T18:05:45.247Z,78.88
2018-12-12T18:08:14.900Z,78.53
2018-12-12T18:10:44.620Z,79.10
2018-12-12T18:13:14.896Z,78.71
2018-12-12T18:15:44.570Z,79.14
2018-12-12T18:18:14.451Z,80.08
2018-12-12T18:20:44.047Z,80.29
2018-12-12T18:23:13.834Z,82.20
2018-12-12T18:25:43.505Z,81.08
2018-12-12T18:28:13.564Z,81.29
2018-12-12T18:30:43.310Z,81.82
2018-12-12T18:33:12.933Z,81.19
2018-12-12T18:35:42.524Z,80.97
2018-12-12T18:38:12.109Z,82.29
2018-12-12T18:40:41.842Z,81.58
2018-12-12T18:43:11.522Z,82.00
2018-12-12T18:45:42.184Z,82.41
2018-12-12T18:48:11.999Z,82.91
2018-12-12T18:50:42.138Z,82.63
2018-12-12T18:53:11.837Z,83.13
2018-12-12T18:55:43.029Z,83.54
2018-12-12T18:58:13.241Z,84.14
2018-12-12T19:00:42.893Z,83.43
2018-12-12T19:03:12.658Z,83.32
2018-12-12T19:05:42.438Z,84.58
2018-12-12T19:08:13.568Z,83.67
2018-12-12T19:10:43.294Z,83.35
2018-12-12T19:13:13.066Z,83.21
2018-12-12T19:15:42.671Z,82.91
2018-12-12T19:18:12.382Z,83.84
2018-12-12T19:20:42.072Z,83.55
2018-12-12T19:23:11.957Z,83.00
2018-12-12T19:25:41.574Z,82.33
2018-12-12T19:28:12.056Z,82.61
2018-12-12T19:30:41.716Z,82.31
2018-12-12T19:33:11.342Z,81.68
2018-12-12T19:35:41.091Z,81.74
2018-12-12T19:38:10.916Z,82.47
2018-12-12T19:40:40.550Z,83.19
2018-12-12T19:43:10.326Z,83.50
2018-12-12T19:45:39.906Z,83.67
2018-12-12T19:48:09.736Z,82.49
2018-12-12T19:50:39.590Z,82.74
2018-12-12T19:53:09.311Z,83.78
2018-12-12T19:55:39.331Z,84.18
2018-12-12T19:58:08.960Z,84.17
2018-12-12T20:00:38.974Z,83.42
2018-12-12T20:03:09.032Z,83.50
2018-12-12T20:05:41.444Z,83.78
2018-12-12T20:08:10.789Z,84.43
2018-12-12T20:10:40.490Z,84.36
2018-12-12T20:13:10.401Z,84.27
2018-12-12T20:15:47.596Z,84.95
2018-12-12T20:18:17.344Z,84.90
2018-12-12T20:20:47.095Z,86.23
2018-12-12T20:23:16.950Z,86.08
2018-12-12T20:25:46.548Z,85.82
2018-12-12T20:28:16.365Z,85.28
2018-12-12T20:30:46.837Z,85.52
2018-12-12T20:33:16.719Z,85.65
2018-12-12T20:35:48.369Z,86.00
2018-12-12T20:38:18.316Z,85.58
2018-12-12T20:40:48.007Z,86.11
2018-12-12T20:43:18.243Z,86.17
2018-12-12T20:45:47.802Z,85.43
2018-12-12T20:48:18.355Z,84.66
2018-12-12T20:50:48.293Z,85.77
2018-12-12T20:53:17.983Z,84.44
2018-12-12T20:55:49.845Z,83.50
2018-12-12T20:58:19.458Z,83.36
2018-12-12T21:00:49.094Z,83.18
2018-12-12T21:03:18.954Z,82.16
2018-12-12T21:05:54.515Z,81.77
2018-12-12T21:08:23.149Z,81.02
2018-12-12T21:10:53.266Z,81.55
2018-12-12T21:13:23.866Z,80.80
2018-12-12T21:15:53.777Z,80.81
2018-12-12T21:18:23.932Z,80.50
2018-12-12T21:20:55.308Z,80.00
2018-12-12T21:23:25.160Z,80.00
2018-12-12T21:25:54.770Z,80.31
2018-12-12T21:28:25.188Z,80.30
2018-12-12T21:30:54.840Z,79.63
2018-12-12T21:33:25.401Z,80.15
2018-12-12T21:36:00.718Z,79.03
2018-12-12T21:38:27.013Z,79.73
2018-12-12T21:40:56.622Z,79.12
2018-12-12T21:43:26.801Z,79.75
2018-12-12T21:45:56.380Z,79.02
2018-12-12T21:48:25.989Z,79.60
2018-12-12T21:50:56.508Z,80.01
2018-12-12T21:53:26.652Z,80.24
2018-12-12T21:55:56.913Z,80.58
2018-12-12T21:58:26.714Z,81.45
2018-12-12T22:00:56.479Z,82.79
2018-12-12T22:03:28.406Z,81.61
2018-12-12T22:06:07.351Z,81.85
2018-12-12T22:08:33.747Z,83.61
2018-12-12T22:11:04.302Z,82.02
2018-12-12T22:13:33.798Z,82.63
2018-12-12T22:16:03.421Z,82.71
2018-12-12T22:18:32.992Z,83.42
2018-12-12T22:21:03.105Z,83.42
2018-12-12T22:23:32.821Z,83.61
2018-12-12T22:26:02.611Z,84.24
2018-12-12T22:28:32.204Z,83.95
2018-12-12T22:31:01.970Z,85.06
2018-12-12T22:33:31.730Z,84.89
2018-12-12T22:36:01.385Z,85.00
2018-12-12T22:38:32.323Z,85.50
2018-12-12T22:41:02.252Z,84.68
2018-12-12T22:43:31.945Z,84.46
2018-12-12T22:46:01.587Z,84.21
2018-12-12T22:48:31.359Z,83.48
2018-12-12T22:51:01.014Z,83.32
2018-12-12T22:53:30.575Z,83.07
2018-12-12T22:56:00.562Z,82.33
2018-12-12T22:58:30.051Z,81.76
2018-12-12T23:01:07.480Z,81.42
2018-12-12T23:03:37.406Z,81.43
2018-12-12T23:06:08.200Z,81.39
2018-12-12T23:08:38.021Z,81.51
2018-12-12T23:11:07.663Z,80.92
2018-12-12T23:13:37.289Z,80.95
2018-12-12T23:16:07.094Z,81.51
2018-12-12T23:18:36.899Z,81.71
2018-12-12T23:21:06.626Z,82.00
2018-12-12T23:23:36.329Z,81.42
2018-12-12T23:26:05.938Z,81.48
2018-12-12T23:28:35.732Z,80.28
2018-12-12T23:31:05.716Z,80.94
2018-12-12T23:33:35.462Z,80.68
2018-12-12T23:36:05.065Z,81.09
2018-12-12T23:38:34.640Z,80.67
2018-12-12T23:41:05.205Z,80.50
2018-12-12T23:43:34.923Z,80.44
2018-12-12T23:46:04.501Z,79.86
2018-12-12T23:48:34.201Z,80.70
2018-12-12T23:51:03.898Z,80.25
2018-12-12T23:53:33.502Z,81.39
2018-12-12T23:56:03.025Z,80.82
2018-12-12T23:58:32.618Z,81.55
